Time;durP1;ratioP1;P1;durP2;ratioP2;P2;SDS_P1;SDS_P2;PMS_P1;PMS_P2;Temp;Humidity;BMP_temperature;BMP_pressure;BME280_temperature;BME280_humidity;BME280_pressure;Samples;Min_cycle;Max_cycle;Signal;HPM_P1;HPM_P2
2022/06/14 00:03:15;;;;;;;4.85;4.22;;;;;;;24.59;93.03;99878.31;5029083;28;20699;-71
2022/06/14 00:05:42;;;;;;;5.13;4.63;;;;;;;24.42;94.08;99870.25;5031590;28;20594;-70
2022/06/14 00:08:11;;;;;;;5.78;4.68;;;;;;;24.37;94.36;99875.75;5032528;28;20196;-70
2022/06/14 00:10:38;;;;;;;5.03;4.63;;;;;;;24.34;95.49;99888.28;5032675;28;20200;-71
2022/06/14 00:13:07;;;;;;;6.13;4.18;;;;;;;24.39;95.70;99886.31;5032363;28;20211;-70
2022/06/14 00:15:35;;;;;;;5.97;4.75;;;;;;;24.16;96.85;99874.94;5031951;28;20664;-70
2022/06/14 00:18:02;;;;;;;5.10;4.70;;;;;;;24.15;96.75;99861.75;5032295;28;20681;-70
2022/06/14 00:20:29;;;;;;;5.00;4.50;;;;;;;24.16;98.89;99880.22;5032424;28;20211;-70
2022/06/14 00:22:56;;;;;;;9.82;4.65;;;;;;;24.06;99.26;99885.97;5032031;28;20203;-70
2022/06/14 00:25:27;;;;;;;6.50;5.05;;;;;;;23.88;99.15;99818.75;5031952;28;20224;-70
2022/06/14 00:27:54;;;;;;;5.50;5.00;;;;;;;24.12;100.00;99875.94;5031953;28;20204;-70
2022/06/14 00:30:22;;;;;;;4.65;4.28;;;;;;;24.18;100.00;99867.78;5031959;28;20208;-70
2022/06/14 00:32:49;;;;;;;5.40;4.82;;;;;;;24.04;100.00;99853.38;5032340;28;20203;-70
2022/06/14 00:35:16;;;;;;;5.47;4.90;;;;;;;24.02;100.00;99855.22;5013598;28;20199;-70
2022/06/14 00:37:43;;;;;;;6.53;4.72;;;;;;;24.04;100.00;99848.91;5031782;28;20292;-70
2022/06/14 00:40:13;;;;;;;7.05;4.68;;;;;;;24.15;100.00;99841.41;5031982;28;20204;-70
2022/06/14 00:42:42;;;;;;;4.93;4.43;;;;;;;24.26;100.00;99866.59;5031711;28;20203;-70
2022/06/14 00:45:48;;;;;;;6.88;4.97;;;;;;;24.31;100.00;99861.94;5031696;28;20231;-70
2022/06/14 00:48:19;;;;;;;4.93;4.53;;;;;;;24.26;100.00;99851.53;5028158;28;20196;-70
2022/06/14 00:50:49;;;;;;;5.25;4.80;;;;;;;24.10;100.00;99840.72;5029942;28;20192;-70
2022/06/14 00:53:21;;;;;;;5.25;4.85;;;;;;;24.19;100.00;99858.88;5031808;28;20211;-70
2022/06/14 00:55:53;;;;;;;5.85;5.25;;;;;;;24.09;100.00;99851.38;5031615;28;20318;-70
2022/06/14 00:58:28;;;;;;;7.40;5.07;;;;;;;23.82;100.00;99826.97;5031458;28;20200;-70
2022/06/14 01:01:00;;;;;;;5.40;4.90;;;;;;;24.01;100.00;99849.06;5031666;28;20207;-70
2022/06/14 01:03:33;;;;;;;5.82;5.32;;;;;;;23.98;100.00;99837.75;5031073;28;20592;-70
2022/06/14 01:06:08;;;;;;;6.25;5.63;;;;;;;23.79;100.00;99843.00;5031371;28;20220;-70
2022/06/14 01:08:40;;;;;;;5.38;4.90;;;;;;;23.86;100.00;99856.81;5031738;28;20204;-70
2022/06/14 01:11:10;;;;;;;7.57;4.95;;;;;;;23.74;100.00;99834.38;5030234;28;20203;-70
2022/06/14 01:13:39;;;;;;;5.95;5.22;;;;;;;23.73;100.00;99851.19;5031003;28;20239;-70
2022/06/14 01:16:07;;;;;;;6.40;5.70;;;;;;;23.69;100.00;99854.88;5031592;28;20204;-70
2022/06/14 01:18:35;;;;;;;5.78;5.10;;;;;;;23.54;100.00;99850.25;5031229;28;20333;-70
2022/06/14 01:21:02;;;;;;;8.60;5.13;;;;;;;23.58;100.00;99859.78;5031509;28;20682;-70
2022/06/14 01:23:30;;;;;;;8.65;5.22;;;;;;;23.78;100.00;99854.50;5031404;28;20203;-70
2022/06/14 01:26:07;;;;;;;5.97;5.38;;;;;;;23.93;100.00;99871.53;5011954;28;20218;-71
2022/06/14 01:28:35;;;;;;;5.82;5.30;;;;;;;23.73;100.00;99848.53;5031039;28;20214;-71
2022/06/14 01:31:02;;;;;;;9.93;5.07;;;;;;;23.82;100.00;99868.47;5031227;28;20199;-70
2022/06/14 01:33:38;;;;;;;6.15;5.10;;;;;;;23.85;100.00;99874.50;4996343;28;20204;-71
2022/06/14 01:36:11;;;;;;;6.32;5.82;;;;;;;23.47;100.00;99836.38;5031367;28;20208;-70
2022/06/14 01:38:43;;;;;;;7.90;5.70;;;;;;;23.61;100.00;99875.53;5030795;28;20207;-71
2022/06/14 01:41:22;;;;;;;7.90;5.57;;;;;;;23.58;100.00;99876.50;5031040;28;20211;-71
2022/06/14 01:44:06;;;;;;;7.82;5.50;;;;;;;23.49;100.00;99881.31;5030737;28;20620;-71
2022/06/14 01:46:41;;;;;;;10.60;5.95;;;;;;;23.39;100.00;99896.69;5011640;28;20212;-70
2022/06/14 01:52:14;;;;;;;12.23;6.35;;;;;;;22.71;100.00;99875.56;5011389;28;20620;-71
2022/06/14 01:54:53;;;;;;;7.28;6.53;;;;;;;22.57;100.00;99867.25;5025724;28;20243;-70
2022/06/14 01:57:29;;;;;;;8.98;6.88;;;;;;;22.50;100.00;99873.69;5019119;28;20195;-71
2022/06/14 02:00:02;;;;;;;17.38;7.40;;;;;;;22.44;100.00;99871.28;5030895;28;20211;-70
2022/06/14 02:02:35;;;;;;;10.13;7.65;;;;;;;22.48;100.00;99870.22;5030822;28;20287;-70
2022/06/14 02:05:08;;;;;;;7.32;6.72;;;;;;;22.42;100.00;99859.91;5030728;28;20227;-70
2022/06/14 02:07:42;;;;;;;8.07;7.28;;;;;;;22.40;100.00;99864.38;5031032;28;20231;-70
2022/06/14 02:10:20;;;;;;;12.20;6.75;;;;;;;22.51;100.00;99862.22;5029489;28;20200;-70
2022/06/14 02:12:57;;;;;;;13.75;7.53;;;;;;;22.49;100.00;99858.75;5030615;28;20214;-70
2022/06/14 02:15:31;;;;;;;10.95;7.85;;;;;;;22.27;100.00;99849.88;5031964;28;20239;-70
2022/06/14 02:18:05;;;;;;;10.50;8.45;;;;;;;22.40;100.00;99875.78;5032526;28;20848;-71
2022/06/14 02:20:36;;;;;;;8.68;6.82;;;;;;;22.22;100.00;99839.50;5034474;28;20215;-70
2022/06/14 02:23:07;;;;;;;10.55;7.10;;;;;;;22.47;100.00;99872.03;5033894;28;20204;-70
2022/06/14 02:25:40;;;;;;;8.48;7.57;;;;;;;22.37;100.00;99864.47;5033258;28;20216;-71
2022/06/14 02:28:13;;;;;;;8.68;7.75;;;;;;;22.33;100.00;99853.16;5034376;28;20203;-68
2022/06/14 02:30:47;;;;;;;7.45;6.82;;;;;;;22.43;100.00;99869.56;5034148;28;20219;-68
2022/06/14 02:33:19;;;;;;;11.35;8.48;;;;;;;22.37;100.00;99864.47;5034163;28;20203;-71
2022/06/14 02:35:52;;;;;;;13.40;9.90;;;;;;;22.37;100.00;99864.47;5033954;28;20286;-71
2022/06/14 02:38:25;;;;;;;9.73;6.80;;;;;;;22.18;100.00;99801.78;5034838;28;20262;-71
2022/06/14 02:40:58;;;;;;;14.35;8.02;;;;;;;22.54;100.00;99867.38;5034637;28;20200;-71
2022/06/14 02:43:29;;;;;;;14.63;10.07;;;;;;;22.57;100.00;99872.56;5034062;28;20284;-71
2022/06/14 02:46:01;;;;;;;13.60;6.55;;;;;;;22.63;100.00;99867.91;5030677;28;20220;-71
2022/06/14 02:48:32;;;;;;;8.57;6.35;;;;;;;22.63;100.00;99885.53;5034511;28;20204;-71
2022/06/14 02:51:03;;;;;;;14.52;9.85;;;;;;;22.55;100.00;99890.22;5034021;28;20237;-69
2022/06/14 02:53:36;;;;;;;9.25;6.63;;;;;;;22.34;100.00;99861.94;5034440;28;20756;-69
2022/06/14 02:56:13;;;;;;;8.60;6.85;;;;;;;22.58;100.00;99864.53;5034352;28;20203;-70
2022/06/14 02:58:48;;;;;;;6.43;5.78;;;;;;;22.59;100.00;99887.41;5034011;28;20200;-70
2022/06/14 03:01:19;;;;;;;7.00;6.20;;;;;;;22.53;100.00;99907.94;5032670;28;20196;-70
2022/06/14 03:03:51;;;;;;;5.72;5.32;;;;;;;22.55;100.00;99895.50;5015302;28;20200;-69
2022/06/14 03:06:25;;;;;;;10.05;7.40;;;;;;;22.76;100.00;99892.09;5034087;28;20740;-70
2022/06/14 03:08:58;;;;;;;10.50;6.32;;;;;;;22.35;100.00;99826.69;5034261;28;20561;-71
2022/06/14 03:11:34;;;;;;;6.80;6.20;;;;;;;22.82;100.00;99897.19;4999014;28;20326;-70
2022/06/14 03:14:12;;;;;;;8.88;5.25;;;;;;;23.34;100.00;99892.50;5031321;28;20235;-68
2022/06/14 03:16:50;;;;;;;6.28;5.18;;;;;;;23.63;100.00;99894.84;5033977;28;20228;-68
2022/06/14 03:19:21;;;;;;;6.97;5.05;;;;;;;23.91;100.00;99911.31;5033563;28;20623;-69
2022/06/14 03:21:53;;;;;;;6.88;5.18;;;;;;;23.96;100.00;99903.19;5033342;28;20196;-75
2022/06/14 03:24:31;;;;;;;5.90;4.13;;;;;;;24.11;100.00;99903.38;5033155;28;20589;-70
2022/06/14 03:27:07;;;;;;;4.30;4.00;;;;;;;24.11;100.00;99868.91;5032282;28;20228;-70
2022/06/14 03:29:42;;;;;;;4.47;4.07;;;;;;;24.38;100.00;99911.09;5033067;28;20200;-69
2022/06/14 03:32:16;;;;;;;5.20;4.80;;;;;;;24.80;100.00;99925.06;5033353;28;20204;-69
2022/06/14 03:34:49;;;;;;;6.43;4.72;;;;;;;24.48;100.00;99907.09;5033385;28;20200;-71
2022/06/14 03:37:16;;;;;;;4.95;4.45;;;;;;;24.70;100.00;99918.47;5033624;28;20204;-70
2022/06/14 03:39:47;;;;;;;5.90;5.30;;;;;;;25.33;100.00;99924.41;5033148;28;20200;-71
2022/06/14 03:42:16;;;;;;;8.93;4.78;;;;;;;25.50;100.00;99927.09;5033282;28;20203;-69
2022/06/14 03:44:44;;;;;;;4.63;4.32;;;;;;;25.35;100.00;99901.28;5032726;28;20204;-69
2022/06/14 03:47:23;;;;;;;4.75;4.45;;;;;;;25.80;100.00;99930.91;5033009;28;20672;-69
2022/06/14 03:49:54;;;;;;;11.15;4.25;;;;;;;25.86;100.00;99930.63;5033177;28;20207;-70
2022/06/14 03:52:33;;;;;;;6.47;4.32;;;;;;;25.90;100.00;99910.91;5031258;28;20656;-69
2022/06/14 03:55:07;;;;;;;5.00;4.63;;;;;;;26.26;100.00;99931.28;5033087;28;20227;-70
2022/06/14 03:57:50;;;;;;;6.05;3.90;;;;;;;26.83;100.00;99914.06;5033364;28;20211;-69
2022/06/14 04:00:31;;;;;;;4.63;4.28;;;;;;;27.15;99.67;99930.97;5032915;28;20199;-70
2022/06/14 04:03:12;;;;;;;5.30;4.80;;;;;;;26.87;98.64;99929.78;5032617;28;20196;-69
2022/06/14 04:05:54;;;;;;;4.95;4.55;;;;;;;27.38;96.13;99941.19;5028736;28;20239;-70
2022/06/14 04:08:35;;;;;;;5.25;4.75;;;;;;;27.14;97.60;99950.53;5032835;28;20200;-69
2022/06/14 04:11:14;;;;;;;5.70;4.38;;;;;;;27.45;95.40;99961.22;5033141;28;20200;-69
2022/06/14 04:13:48;;;;;;;4.80;4.13;;;;;;;27.81;92.56;99968.94;5016829;28;20231;-70
2022/06/14 04:16:22;;;;;;;6.32;5.38;;;;;;;27.61;94.96;99958.56;5032791;28;20208;-68
2022/06/14 04:19:00;;;;;;;5.47;4.80;;;;;;;27.44;94.78;99965.66;5032316;28;20203;-68
2022/06/14 04:21:35;;;;;;;4.78;4.40;;;;;;;27.73;92.79;99960.50;5031600;28;20203;-70
2022/06/14 04:24:10;;;;;;;5.78;4.32;;;;;;;27.85;91.94;99966.00;5031983;28;20287;-70
2022/06/14 04:26:46;;;;;;;5.47;4.45;;;;;;;28.36;87.29;99942.59;5031131;28;20268;-70
2022/06/14 04:29:23;;;;;;;4.85;4.50;;;;;;;27.76;90.11;99909.69;5032259;28;21638;-71
2022/06/14 04:31:57;;;;;;;5.10;4.72;;;;;;;28.34;86.99;99949.81;5006872;28;20587;-70
2022/06/14 04:34:29;;;;;;;5.40;4.90;;;;;;;28.53;86.37;99947.75;5014622;28;20204;-70
2022/06/14 04:37:03;;;;;;;6.90;4.80;;;;;;;29.03;84.32;99969.56;5032263;28;20314;-70
2022/06/14 04:39:36;;;;;;;5.18;4.57;;;;;;;29.38;81.37;99947.78;5031169;28;20656;-70
2022/06/14 04:42:09;;;;;;;5.05;4.65;;;;;;;29.26;80.12;99948.53;5012950;28;20200;-69
2022/06/14 04:44:44;;;;;;;5.15;4.75;;;;;;;29.35;79.45;99969.34;5032006;28;20242;-69
2022/06/14 04:47:15;;;;;;;4.88;4.47;;;;;;;29.22;81.55;99977.25;5031821;28;20222;-69
2022/06/14 04:49:48;;;;;;;5.78;4.20;;;;;;;28.82;84.12;99970.03;5032162;28;20211;-69
2022/06/14 04:52:21;;;;;;;4.82;4.43;;;;;;;29.15;83.02;99954.53;5032038;28;20208;-69
2022/06/14 04:54:53;;;;;;;5.22;4.85;;;;;;;29.68;79.04;99974.34;5031207;28;20656;-70
2022/06/14 04:57:30;;;;;;;4.90;4.47;;;;;;;29.30;79.55;99972.31;5031564;28;20208;-68
2022/06/14 05:00:03;;;;;;;4.80;4.40;;;;;;;30.16;77.07;99984.47;5031217;28;20207;-69
2022/06/14 05:02:36;;;;;;;5.82;4.25;;;;;;;29.95;74.96;99984.09;4995400;28;20211;-69
2022/06/14 05:05:08;;;;;;;7.93;4.70;;;;;;;29.16;82.03;99969.63;5031852;28;20196;-69
2022/06/14 05:07:41;;;;;;;5.47;4.97;;;;;;;29.97;79.18;99983.97;5030311;28;20212;-69
2022/06/14 05:10:13;;;;;;;7.60;4.65;;;;;;;30.14;76.19;99985.56;5031377;28;20210;-68
2022/06/14 05:12:46;;;;;;;4.90;4.45;;;;;;;29.90;76.73;99993.38;5031086;28;20599;-68
2022/06/14 05:15:19;;;;;;;6.40;4.70;;;;;;;29.76;78.31;100002.25;5031356;28;20743;-69
2022/06/14 05:17:52;;;;;;;4.85;4.50;;;;;;;29.31;81.52;99994.53;5031264;28;20211;-68
2022/06/14 05:20:25;;;;;;;5.03;4.63;;;;;;;29.46;81.80;99982.88;5031261;28;20204;-67
2022/06/14 05:23:00;;;;;;;5.80;4.55;;;;;;;29.93;78.72;99980.66;5007388;28;20223;-67
2022/06/14 05:25:38;;;;;;;5.13;4.72;;;;;;;29.37;81.76;99989.66;5030866;28;20207;-68
2022/06/14 05:28:08;;;;;;;5.63;4.80;;;;;;;28.90;84.88;99989.94;5030960;28;20220;-67
2022/06/14 05:30:44;;;;;;;4.95;4.43;;;;;;;28.23;87.23;99985.13;5030952;28;20574;-67
2022/06/14 05:33:27;;;;;;;4.95;4.55;;;;;;;28.33;88.43;99982.75;5031369;28;20199;-67
2022/06/14 05:35:58;;;;;;;7.25;4.93;;;;;;;28.90;83.41;99995.28;4995587;28;20204;-68
2022/06/14 05:38:36;;;;;;;5.03;4.72;;;;;;;28.41;87.89;99999.19;5030862;28;20746;-67
2022/06/14 05:41:06;;;;;;;7.97;4.72;;;;;;;28.91;85.95;100005.00;4996093;28;20283;-67
2022/06/14 05:43:39;;;;;;;5.43;5.00;;;;;;;29.49;82.09;100004.06;5030856;28;20289;-67
2022/06/14 05:46:11;;;;;;;7.35;5.07;;;;;;;29.20;82.13;99932.91;5031172;28;20227;-67
2022/06/14 05:48:46;;;;;;;5.65;5.05;;;;;;;29.01;85.55;99992.81;5031157;28;20204;-67
2022/06/14 05:51:16;;;;;;;5.85;5.38;;;;;;;29.04;83.52;100011.31;5030885;28;20200;-68
2022/06/14 05:53:47;;;;;;;9.23;5.28;;;;;;;29.47;83.50;99995.25;5030493;28;20200;-68
2022/06/14 05:56:20;;;;;;;5.82;5.10;;;;;;;29.57;81.22;100004.44;5030237;28;20211;-68
2022/06/14 05:58:55;;;;;;;6.78;6.07;;;;;;;29.94;80.29;99995.75;5030405;28;20199;-68
2022/06/14 06:01:28;;;;;;;6.00;5.50;;;;;;;28.82;85.63;99996.72;5030381;28;20200;-68
2022/06/14 06:04:02;;;;;;;6.05;5.40;;;;;;;28.79;85.13;99963.03;5030484;28;20676;-68
2022/06/14 06:06:33;;;;;;;5.97;5.22;;;;;;;29.72;83.02;99992.72;5030297;28;20700;-68
2022/06/14 06:09:04;;;;;;;6.10;5.05;;;;;;;29.63;81.86;99995.16;5030242;28;20738;-68
2022/06/14 06:11:36;;;;;;;10.80;5.75;;;;;;;29.24;82.57;100009.22;5030198;28;20204;-68
2022/06/14 06:14:09;;;;;;;7.63;5.85;;;;;;;28.80;85.92;99999.47;5030223;28;20340;-67
2022/06/14 06:16:43;;;;;;;5.80;5.30;;;;;;;29.11;84.10;100000.25;5030156;28;20204;-67
2022/06/14 06:19:15;;;;;;;7.85;5.05;;;;;;;29.10;82.74;100001.19;5030363;28;20592;-67
2022/06/14 06:21:50;;;;;;;5.60;5.20;;;;;;;29.63;83.13;99996.00;5030273;28;20207;-68
2022/06/14 06:24:20;;;;;;;7.85;5.75;;;;;;;29.95;78.29;100000.16;5030077;28;20246;-67
2022/06/14 06:26:58;;;;;;;6.97;5.00;;;;;;;29.83;75.86;100014.28;5030016;28;20223;-67
2022/06/14 06:29:35;;;;;;;6.25;4.90;;;;;;;29.61;79.80;100007.75;5011601;28;20196;-67
2022/06/14 06:32:05;;;;;;;5.15;4.80;;;;;;;29.29;82.62;100020.47;5030079;28;20199;-67
2022/06/14 06:34:32;;;;;;;6.72;6.00;;;;;;;29.35;83.77;100033.47;5029973;28;20203;-67
2022/06/14 06:37:06;;;;;;;7.47;5.03;;;;;;;29.16;83.84;100035.53;5030002;28;20219;-67
2022/06/14 06:39:41;;;;;;;5.72;5.20;;;;;;;28.52;91.07;100031.41;4995049;28;20588;-67
2022/06/14 06:42:16;;;;;;;14.23;5.80;;;;;;;28.84;89.44;100029.50;5029975;28;20204;-67
2022/06/14 06:44:54;;;;;;;6.90;6.00;;;;;;;29.33;88.62;100024.69;5029940;28;20200;-66
2022/06/14 06:47:28;;;;;;;5.35;4.88;;;;;;;29.45;85.10;100035.47;5029907;28;20255;-67
2022/06/14 06:50:08;;;;;;;6.70;5.40;;;;;;;29.62;84.95;100025.50;5029881;28;20523;-67
2022/06/14 06:52:46;;;;;;;6.55;5.57;;;;;;;29.32;84.74;100039.00;5029892;28;20207;-67
2022/06/14 06:55:18;;;;;;;8.80;6.07;;;;;;;29.88;84.54;100022.03;5029912;28;20196;-66
2022/06/14 06:57:48;;;;;;;7.20;5.93;;;;;;;30.46;82.83;100035.97;5030022;28;20204;-67
2022/06/14 07:00:18;;;;;;;7.00;6.28;;;;;;;30.58;79.34;100023.53;5029738;28;20204;-66
2022/06/14 07:02:50;;;;;;;6.63;6.10;;;;;;;30.25;81.23;100032.00;4998665;28;20200;-67
2022/06/14 07:05:18;;;;;;;8.10;6.63;;;;;;;29.98;83.43;100033.84;5033527;28;20204;-67
2022/06/14 07:07:57;;;;;;;6.80;6.10;;;;;;;30.37;81.18;100041.03;5033527;28;20227;-67
2022/06/14 07:10:30;;;;;;;8.20;5.95;;;;;;;30.24;79.93;100024.09;5033361;28;20227;-67
2022/06/14 07:13:02;;;;;;;6.82;6.32;;;;;;;29.62;82.55;100053.09;5033181;28;20211;-66
2022/06/14 07:15:35;;;;;;;7.13;6.30;;;;;;;30.21;83.92;100035.88;4998911;28;20700;-68
2022/06/14 07:18:11;;;;;;;6.88;6.13;;;;;;;30.37;81.41;100030.31;5033413;28;20255;-68
2022/06/14 07:20:48;;;;;;;9.25;6.25;;;;;;;30.96;76.88;100043.16;5033159;28;20639;-68
2022/06/14 07:23:21;;;;;;;11.32;6.65;;;;;;;30.61;78.35;100044.75;5033028;28;20206;-68
2022/06/14 07:25:57;;;;;;;7.75;6.60;;;;;;;30.55;83.00;100042.50;5032985;28;20196;-68
2022/06/14 07:28:30;;;;;;;13.55;6.30;;;;;;;30.44;82.93;100039.69;5033100;28;20208;-67
2022/06/14 07:31:01;;;;;;;7.10;6.40;;;;;;;30.35;85.44;100048.31;5032876;28;20192;-67
2022/06/14 07:33:31;;;;;;;9.60;7.25;;;;;;;30.00;85.67;100045.31;5032946;28;20571;-67
2022/06/14 07:36:00;;;;;;;10.48;6.75;;;;;;;29.85;87.78;100044.50;5033059;28;20193;-67
2022/06/14 07:38:36;;;;;;;7.85;7.07;;;;;;;29.89;87.31;100056.72;5032843;28;20587;-68
2022/06/14 07:41:14;;;;;;;7.88;7.15;;;;;;;29.44;89.66;100065.81;5032766;28;20200;-67
2022/06/14 07:43:45;;;;;;;11.43;6.88;;;;;;;29.48;92.40;100061.13;5032919;28;20204;-67
2022/06/14 07:46:16;;;;;;;12.23;7.10;;;;;;;29.54;94.08;100055.38;5032617;28;20211;-67
2022/06/14 07:48:48;;;;;;;8.25;7.18;;;;;;;29.50;95.64;100064.56;5032618;28;20664;-67
2022/06/14 07:51:24;;;;;;;10.25;7.18;;;;;;;29.40;98.34;100055.41;5032660;28;20204;-67
2022/06/14 07:53:58;;;;;;;9.35;7.63;;;;;;;29.36;99.76;100062.75;5032510;28;20191;-67
2022/06/14 07:56:30;;;;;;;8.07;6.95;;;;;;;29.09;100.00;100052.88;5032472;28;20283;-66
2022/06/14 07:59:03;;;;;;;12.45;6.65;;;;;;;28.83;100.00;100058.00;5032445;28;20200;-69
2022/06/14 08:01:34;;;;;;;7.78;6.53;;;;;;;28.69;100.00;100059.78;5032499;28;20227;-66
2022/06/14 08:04:16;;;;;;;7.90;6.80;;;;;;;28.81;100.00;100059.06;5031149;28;20199;-66
2022/06/14 08:06:47;;;;;;;7.50;6.05;;;;;;;28.82;100.00;100040.28;5047324;28;20227;-70
2022/06/14 08:09:19;;;;;;;7.82;5.88;;;;;;;28.73;98.94;100056.84;5047641;28;20204;-67
2022/06/14 08:11:50;;;;;;;10.73;6.28;;;;;;;28.81;96.87;100070.59;5039414;28;20238;-68
2022/06/14 08:14:23;;;;;;;6.88;5.47;;;;;;;28.56;94.96;100075.66;5042870;28;20232;-70
2022/06/14 08:16:52;;;;;;;8.15;5.60;;;;;;;28.61;96.13;100073.53;5052111;28;20196;-68
2022/06/14 08:19:25;;;;;;;6.43;5.82;;;;;;;27.98;97.20;100008.78;5041714;28;20692;-66
2022/06/14 08:21:57;;;;;;;7.97;6.43;;;;;;;28.22;98.30;100065.25;5035148;28;20195;-68
2022/06/14 08:24:31;;;;;;;7.82;6.25;;;;;;;28.13;99.22;100060.41;5001251;28;20643;-68
2022/06/14 08:27:03;;;;;;;7.10;6.40;;;;;;;28.15;100.00;100063.84;5051599;28;20629;-68
2022/06/14 08:29:36;;;;;;;7.80;6.75;;;;;;;28.04;100.00;100070.63;5051947;28;20313;-68
2022/06/14 08:32:10;;;;;;;6.55;5.97;;;;;;;28.07;100.00;100072.31;5051525;28;20686;-68
2022/06/14 08:34:42;;;;;;;8.73;7.13;;;;;;;28.36;99.69;100070.63;5051624;28;20210;-69
2022/06/14 08:37:15;;;;;;;8.57;6.90;;;;;;;28.50;97.26;100066.19;5048889;28;20671;-68
2022/06/14 08:39:47;;;;;;;8.32;7.03;;;;;;;28.48;98.02;100077.91;5041136;28;20206;-68
2022/06/14 08:42:21;;;;;;;13.75;8.30;;;;;;;28.07;98.30;100065.13;5049463;28;20203;-68
2022/06/14 08:44:57;;;;;;;7.07;6.47;;;;;;;28.35;98.68;100066.22;5033232;28;20210;-68
2022/06/14 08:47:38;;;;;;;10.30;6.50;;;;;;;28.71;96.46;100061.44;5034812;28;21626;-69
2022/06/14 08:50:34;;;;;;;12.85;7.53;;;;;;;28.62;95.56;100069.94;5042315;28;20261;-68
2022/06/14 08:53:42;;;;;;;7.80;7.20;;;;;;;28.39;100.00;100067.78;5009258;28;20307;-68
2022/06/14 08:56:25;;;;;;;9.70;7.45;;;;;;;28.54;98.51;100078.38;5009180;28;20212;-68
2022/06/14 08:59:27;;;;;;;9.43;7.03;;;;;;;28.88;99.06;100082.63;5009084;28;20207;-68
2022/06/14 09:02:13;;;;;;;12.07;7.60;;;;;;;28.30;100.00;100068.28;4990117;28;20231;-67
2022/06/14 09:05:28;;;;;;;8.43;7.53;;;;;;;28.33;99.85;100084.13;5008848;28;20291;-68
2022/06/14 09:08:34;;;;;;;7.80;7.10;;;;;;;28.76;97.22;100083.34;5008734;28;20378;-68
2022/06/14 09:11:26;;;;;;;7.57;6.82;;;;;;;28.93;93.31;100082.34;5008178;28;20205;-69
2022/06/14 09:14:15;;;;;;;7.20;6.43;;;;;;;28.64;92.17;100070.72;4998634;28;20323;-69
2022/06/14 09:17:08;;;;;;;7.10;6.45;;;;;;;29.20;91.85;100072.66;4911910;29;20207;-69
2022/06/14 09:19:51;;;;;;;7.05;6.35;;;;;;;29.49;91.46;100073.53;4912459;29;20657;-68
2022/06/14 09:22:34;;;;;;;7.45;6.75;;;;;;;29.85;85.68;100076.56;4912263;29;20200;-68
2022/06/14 09:25:10;;;;;;;9.07;6.60;;;;;;;29.56;86.31;100074.88;4895408;29;20205;-68
2022/06/14 09:28:04;;;;;;;7.45;6.47;;;;;;;29.34;87.28;100077.16;4903747;29;20247;-68
2022/06/14 09:30:47;;;;;;;8.85;6.60;;;;;;;29.27;91.25;100075.81;4868986;29;20332;-69
2022/06/14 09:33:51;;;;;;;12.43;6.70;;;;;;;28.87;90.44;100072.88;4912115;29;20212;-72
2022/06/14 09:36:39;;;;;;;8.63;5.80;;;;;;;28.85;92.71;100066.81;4900591;29;20212;-67
2022/06/14 09:39:30;;;;;;;6.80;6.13;;;;;;;28.61;95.33;100070.88;4888692;29;20623;-67
2022/06/14 09:42:37;;;;;;;8.80;7.05;;;;;;;28.90;95.16;100075.38;4912019;29;20235;-69
2022/06/14 09:45:25;;;;;;;7.38;5.97;;;;;;;28.75;96.02;100072.78;4911383;29;20586;-68
2022/06/14 09:48:29;;;;;;;23.00;6.70;;;;;;;28.65;96.11;100064.41;4893229;29;20233;-67
2022/06/14 09:51:35;;;;;;;8.95;5.95;;;;;;;28.46;99.27;100061.13;4893018;29;20208;-67
2022/06/14 09:54:31;;;;;;;6.57;5.97;;;;;;;28.60;98.88;100065.66;4940148;28;20204;-68
2022/06/14 09:57:17;;;;;;;7.32;6.03;;;;;;;28.66;97.54;100054.59;4988368;28;20209;-66
2022/06/14 10:00:13;;;;;;;9.85;6.30;;;;;;;28.98;98.18;100045.53;4956211;28;20210;-68
2022/06/14 10:03:04;;;;;;;7.80;5.80;;;;;;;29.22;95.31;100037.81;4942399;28;20245;-68
2022/06/14 10:05:45;;;;;;;5.93;5.43;;;;;;;29.56;92.53;100066.84;4988466;28;20201;-69
2022/06/14 10:08:49;;;;;;;6.30;5.28;;;;;;;29.35;86.80;100063.72;5015451;28;20223;-66
2022/06/14 10:11:41;;;;;;;6.05;5.43;;;;;;;29.13;88.41;100035.72;4918596;28;20734;-67
2022/06/14 10:14:41;;;;;;;6.15;5.55;;;;;;;29.56;86.13;100058.84;4972643;28;20317;-67
2022/06/14 10:17:21;;;;;;;9.55;5.50;;;;;;;29.55;78.62;100057.09;4911680;29;20235;-67
2022/06/14 10:20:13;;;;;;;4.72;4.32;;;;;;;30.04;74.69;100032.59;4866288;29;20689;-67
2022/06/14 10:22:54;;;;;;;6.97;4.90;;;;;;;30.04;70.20;100043.28;4930689;29;20207;-68
2022/06/14 10:25:31;;;;;;;5.22;4.72;;;;;;;30.35;69.56;100037.59;4930799;29;20207;-67
2022/06/14 10:28:13;;;;;;;8.38;5.00;;;;;;;30.46;67.92;100035.09;4930642;29;20238;-67
2022/06/14 10:31:03;;;;;;;5.05;4.57;;;;;;;30.94;66.27;100036.22;4930593;29;20230;-69
2022/06/14 10:33:44;;;;;;;5.00;4.60;;;;;;;31.18;65.48;100025.66;4930496;29;20764;-69
2022/06/14 10:36:36;;;;;;;8.80;5.07;;;;;;;31.07;70.69;100025.56;4930990;29;20235;-69
2022/06/14 10:39:17;;;;;;;5.57;4.95;;;;;;;31.16;67.82;100014.16;4909761;29;20282;-68
2022/06/14 10:41:54;;;;;;;5.50;5.00;;;;;;;31.65;65.41;100028.47;4934283;29;20665;-68
2022/06/14 10:44:31;;;;;;;5.68;5.22;;;;;;;31.23;66.64;100010.09;4934152;29;20672;-71
2022/06/14 10:47:07;;;;;;;12.02;5.85;;;;;;;31.50;72.14;100007.25;4964315;28;20205;-68
2022/06/14 10:50:17;;;;;;;5.20;4.75;;;;;;;31.13;69.58;100014.38;4992050;28;20205;-69
2022/06/14 10:52:52;;;;;;;6.32;5.38;;;;;;;31.21;76.65;100006.66;4915094;29;20219;-70
2022/06/14 10:55:42;;;;;;;5.70;5.18;;;;;;;31.41;70.62;99998.03;4991990;28;20205;-69
2022/06/14 10:58:36;;;;;;;6.93;5.32;;;;;;;31.63;71.84;100000.06;4939369;28;20201;-70
2022/06/14 11:01:14;;;;;;;9.10;5.25;;;;;;;31.57;69.18;99987.94;4971703;28;20204;-69
2022/06/14 11:03:56;;;;;;;7.57;5.43;;;;;;;31.28;67.63;99986.50;4972834;28;20197;-69
2022/06/14 11:07:05;;;;;;;5.25;4.85;;;;;;;30.80;71.74;99985.44;4972959;28;20213;-69
2022/06/14 11:09:45;;;;;;;6.80;5.13;;;;;;;31.16;68.12;99979.34;4896314;29;20247;-69
2022/06/14 11:12:38;;;;;;;5.38;4.97;;;;;;;31.31;68.54;99975.56;4896405;29;20212;-69
2022/06/14 11:15:11;;;;;;;5.18;4.78;;;;;;;31.81;63.42;99966.53;4896412;29;20366;-69
2022/06/14 11:18:02;;;;;;;5.22;4.82;;;;;;;31.93;69.26;99953.03;4896483;29;20223;-69
2022/06/14 11:20:43;;;;;;;5.32;4.20;;;;;;;31.93;60.65;99966.44;4896468;29;20219;-69
2022/06/14 11:23:18;;;;;;;5.45;4.10;;;;;;;31.80;60.56;99956.75;4923324;28;20206;-69
2022/06/14 11:25:54;;;;;;;4.22;3.92;;;;;;;31.62;56.88;99956.28;4972156;28;20217;-69
2022/06/14 11:28:28;;;;;;;5.75;4.25;;;;;;;31.78;54.48;99937.25;4911249;28;20233;-69
2022/06/14 11:31:05;;;;;;;4.72;3.88;;;;;;;31.98;54.39;99946.47;4941796;28;20194;-69
2022/06/14 11:33:51;;;;;;;4.28;3.63;;;;;;;31.88;53.83;99941.81;4972475;28;20722;-69
2022/06/14 11:36:39;;;;;;;5.70;3.50;;;;;;;31.86;52.59;99942.88;4971791;28;20666;-69
2022/06/14 11:39:32;;;;;;;4.18;3.78;;;;;;;31.84;52.45;99942.16;4972067;28;20206;-69
2022/06/14 11:42:04;;;;;;;5.15;4.32;;;;;;;31.83;52.92;99941.28;4971627;28;20198;-69
2022/06/14 11:44:46;;;;;;;10.63;4.53;;;;;;;31.74;52.97;99939.31;4971679;28;20249;-69
2022/06/14 11:47:22;;;;;;;3.90;3.70;;;;;;;31.94;50.89;99935.13;5032025;28;20672;-69
2022/06/14 11:49:55;;;;;;;5.22;4.35;;;;;;;32.18;50.34;99952.06;5032545;28;20203;-69
2022/06/14 11:52:42;;;;;;;4.90;4.40;;;;;;;32.39;49.69;99957.63;5032646;28;20211;-69
2022/06/14 11:55:24;;;;;;;9.80;4.60;;;;;;;32.46;50.65;99955.31;5032452;28;20200;-69
2022/06/14 11:57:56;;;;;;;5.80;4.57;;;;;;;32.29;52.17;99949.41;4997713;28;20203;-69
2022/06/14 12:00:37;;;;;;;4.85;4.53;;;;;;;32.88;52.35;99949.31;5032363;28;20196;-69
2022/06/14 12:03:19;;;;;;;4.70;3.92;;;;;;;32.54;52.45;99943.00;5013768;28;20203;-69
2022/06/14 12:05:51;;;;;;;4.00;3.42;;;;;;;32.67;50.73;99948.31;5032487;28;20204;-69
2022/06/14 12:08:38;;;;;;;4.07;3.78;;;;;;;32.76;50.23;99953.81;5032239;28;20223;-69
2022/06/14 12:11:15;;;;;;;4.57;4.18;;;;;;;32.63;50.62;99950.38;4997332;28;20697;-68
2022/06/14 12:14:07;;;;;;;6.68;3.55;;;;;;;32.79;52.55;99942.81;5031964;28;20231;-68
2022/06/14 12:16:39;;;;;;;5.18;4.03;;;;;;;33.05;50.57;99954.19;4951632;29;20243;-72